Time;durP1;ratioP1;P1;durP2;ratioP2;P2;SDS_P1;SDS_P2;PMS_P1;PMS_P2;Temp;Humidity;BMP_temperature;BMP_pressure;BME280_temperature;BME280_humidity;BME280_pressure;Samples;Min_cycle;Max_cycle;Signal;HPM_P1;HPM_P2
2021/09/01 00:01:33;;;;;;;38.22;6.97;;;;;;;13.11;100.00;98736.13;4955917;28;20074;-63
2021/09/01 00:03:58;;;;;;;39.42;6.85;;;;;;;12.83;100.00;98738.09;4955068;28;20058;-64
2021/09/01 00:06:24;;;;;;;87.88;7.38;;;;;;;12.94;100.00;98738.56;4953628;28;20404;-63
2021/09/01 00:08:51;;;;;;;54.72;7.82;;;;;;;12.72;100.00;98743.78;4954410;28;20145;-62
2021/09/01 00:11:20;;;;;;;155.45;9.18;;;;;;;12.20;100.00;98754.38;4956657;28;20081;-63
2021/09/01 00:13:46;;;;;;;67.75;8.32;;;;;;;12.88;100.00;98747.53;4958029;28;20097;-63
2021/09/01 00:16:25;;;;;;;39.97;7.15;;;;;;;12.80;100.00;98749.56;4955054;28;20616;-63
2021/09/01 00:19:03;;;;;;;108.05;9.25;;;;;;;12.75;100.00;98754.09;4956219;28;20062;-63
2021/09/01 00:21:31;;;;;;;53.88;7.40;;;;;;;12.73;100.00;98751.53;4954289;28;20468;-64
2021/09/01 00:23:57;;;;;;;65.72;9.30;;;;;;;12.89;100.00;98751.81;4957114;28;20046;-63
2021/09/01 00:26:23;;;;;;;25.85;7.07;;;;;;;13.16;100.00;98746.44;4956131;28;20735;-65
2021/09/01 00:28:49;;;;;;;17.33;6.70;;;;;;;13.17;100.00;98747.28;4958328;28;20089;-62
2021/09/01 00:31:15;;;;;;;85.60;8.45;;;;;;;13.01;100.00;98741.78;4953916;28;20460;-63
2021/09/01 00:33:41;;;;;;;46.75;7.80;;;;;;;13.05;100.00;98731.16;4953288;28;20034;-63
2021/09/01 00:36:07;;;;;;;45.03;7.80;;;;;;;12.85;100.00;98741.53;4957485;28;20074;-63
2021/09/01 00:38:32;;;;;;;66.20;8.27;;;;;;;12.88;100.00;98744.91;4956648;28;20106;-65
2021/09/01 00:40:58;;;;;;;43.80;8.40;;;;;;;12.94;100.00;98741.19;4954634;28;20053;-63
2021/09/01 00:43:24;;;;;;;122.25;9.27;;;;;;;12.92;100.00;98741.25;4957149;28;20034;-65
2021/09/01 00:45:50;;;;;;;61.90;8.43;;;;;;;12.93;100.00;98750.78;4956794;28;20089;-65
2021/09/01 00:48:17;;;;;;;73.38;9.38;;;;;;;12.88;100.00;98744.03;4956604;28;20043;-63
2021/09/01 00:50:43;;;;;;;120.88;9.52;;;;;;;12.73;100.00;98745.47;4957413;28;20034;-63
2021/09/01 00:53:09;;;;;;;18.17;6.82;;;;;;;13.20;100.00;98739.31;4957033;28;20883;-63
2021/09/01 00:55:35;;;;;;;27.42;7.07;;;;;;;12.84;100.00;98738.06;4957688;28;20042;-64
2021/09/01 00:58:00;;;;;;;110.85;9.60;;;;;;;12.61;100.00;98740.69;4957961;28;20027;-66
2021/09/01 01:03:14;;;;;;;98.40;8.93;;;;;;;12.73;100.00;98735.00;4960966;28;20749;-62
2021/09/01 01:05:39;;;;;;;245.48;10.98;;;;;;;12.69;100.00;98743.88;4956861;28;20043;-62
2021/09/01 01:08:05;;;;;;;149.10;9.52;;;;;;;12.65;100.00;98748.38;4955896;28;20735;-64
2021/09/01 01:10:32;;;;;;;92.05;8.63;;;;;;;12.72;100.00;98744.63;4957960;28;20039;-64
2021/09/01 01:12:58;;;;;;;47.55;7.60;;;;;;;12.67;100.00;98750.94;4959681;28;20571;-63
2021/09/01 01:15:23;;;;;;;129.63;9.25;;;;;;;12.72;100.00;98743.78;4957626;28;20037;-63
2021/09/01 01:17:48;;;;;;;76.60;8.05;;;;;;;12.88;100.00;98744.03;4957056;28;20062;-65
2021/09/01 01:20:14;;;;;;;49.22;7.05;;;;;;;12.72;100.00;98749.00;4958119;28;20027;-63
2021/09/01 01:22:39;;;;;;;99.28;8.90;;;;;;;12.62;100.00;98752.88;4959314;28;20472;-62
2021/09/01 01:25:08;;;;;;;35.80;7.75;;;;;;;12.43;100.00;98748.31;4961648;28;20026;-62
2021/09/01 01:27:35;;;;;;;55.63;7.35;;;;;;;12.47;100.00;98746.44;4960126;28;20039;-62
2021/09/01 01:30:09;;;;;;;19.60;6.57;;;;;;;12.72;100.00;98749.00;4957606;28;20082;-66
2021/09/01 01:32:35;;;;;;;23.67;6.93;;;;;;;12.66;100.00;98744.88;4957261;28;20407;-66
2021/09/01 01:35:00;;;;;;;43.58;8.35;;;;;;;12.28;100.00;98759.34;4958428;28;20027;-65
2021/09/01 01:37:26;;;;;;;69.13;8.10;;;;;;;12.28;100.00;98761.97;4957465;28;20300;-66
2021/09/01 01:39:51;;;;;;;73.05;8.18;;;;;;;12.19;100.00;98760.53;4959589;28;20261;-65
2021/09/01 01:42:17;;;;;;;32.60;7.10;;;;;;;12.44;100.00;98764.88;4959758;28;20043;-63
2021/09/01 01:44:42;;;;;;;14.70;6.07;;;;;;;12.89;100.00;98761.47;4959201;28;20444;-62
2021/09/01 01:47:08;;;;;;;11.45;6.30;;;;;;;12.45;100.00;98766.59;4959751;28;20108;-66
2021/09/01 01:49:34;;;;;;;118.85;8.20;;;;;;;12.33;100.00;98762.63;4959134;28;20495;-65
2021/09/01 01:51:59;;;;;;;101.05;8.10;;;;;;;12.23;100.00;98775.19;4959167;28;20121;-64
2021/09/01 01:54:25;;;;;;;78.65;7.93;;;;;;;12.60;100.00;98762.53;4960546;28;20018;-65
2021/09/01 01:56:50;;;;;;;120.53;8.52;;;;;;;12.04;100.00;98777.59;4957336;28;20042;-62
2021/09/01 01:59:16;;;;;;;67.05;7.57;;;;;;;12.54;100.00;98772.31;4958350;28;20023;-62
2021/09/01 02:01:43;;;;;;;43.38;6.85;;;;;;;12.26;100.00;98779.44;4957190;28;20468;-62
2021/09/01 02:04:08;;;;;;;78.80;7.00;;;;;;;12.40;100.00;98774.59;4961912;28;20638;-63
2021/09/01 02:06:34;;;;;;;30.77;6.38;;;;;;;12.28;100.00;98773.28;4959234;28;20043;-66
2021/09/01 02:08:59;;;;;;;93.82;8.75;;;;;;;12.38;100.00;98776.41;4953845;28;20166;-63
2021/09/01 02:11:25;;;;;;;179.30;8.95;;;;;;;12.26;100.00;98784.69;4954687;28;20239;-65
2021/09/01 02:13:50;;;;;;;90.75;7.97;;;;;;;12.40;100.00;98785.06;4959718;28;20234;-63
2021/09/01 02:16:15;;;;;;;88.53;6.85;;;;;;;12.53;100.00;98781.09;4958472;28;20074;-63
2021/09/01 02:18:41;;;;;;;77.57;7.00;;;;;;;12.48;100.00;98782.16;4955040;28;20082;-62
2021/09/01 02:21:06;;;;;;;94.18;7.38;;;;;;;12.39;100.00;98785.97;4956674;28;20046;-62
2021/09/01 02:23:31;;;;;;;25.23;6.38;;;;;;;12.56;100.00;98787.97;4957926;28;20019;-65
2021/09/01 02:25:57;;;;;;;56.20;6.50;;;;;;;12.45;100.00;98788.38;4958858;28;20076;-65
2021/09/01 02:28:22;;;;;;;69.97;7.28;;;;;;;12.53;100.00;98783.72;4956552;28;20022;-63
2021/09/01 02:30:47;;;;;;;98.50;6.93;;;;;;;12.30;100.00;98791.53;4954911;28;20039;-63
2021/09/01 02:33:13;;;;;;;128.73;7.07;;;;;;;12.19;100.00;98791.91;4958102;28;20031;-62
2021/09/01 02:35:38;;;;;;;55.08;5.68;;;;;;;12.79;100.00;98781.91;4957879;28;20057;-62
2021/09/01 02:38:04;;;;;;;168.13;8.00;;;;;;;12.37;100.00;98782.56;4959128;28;20062;-63
2021/09/01 02:40:30;;;;;;;134.73;7.43;;;;;;;12.18;100.00;98789.34;4957134;28;20105;-62
2021/09/01 02:42:55;;;;;;;256.65;9.70;;;;;;;12.19;100.00;98776.22;4959296;28;20137;-66
2021/09/01 02:45:21;;;;;;;9.02;5.63;;;;;;;12.40;100.00;98784.22;4955783;28;20037;-65
2021/09/01 02:47:47;;;;;;;157.88;6.78;;;;;;;12.41;100.00;98785.94;4956231;28;20400;-62
2021/09/01 02:50:13;;;;;;;91.88;8.07;;;;;;;12.04;100.00;98782.84;4958007;28;20114;-62
2021/09/01 02:52:39;;;;;;;131.50;6.72;;;;;;;12.52;100.00;98784.63;4959860;28;20756;-63
2021/09/01 02:55:05;;;;;;;51.03;6.75;;;;;;;12.39;100.00;98787.72;4956809;28;20122;-63
2021/09/01 02:57:30;;;;;;;161.07;7.78;;;;;;;11.80;100.00;98794.94;4956252;28;20042;-65
2021/09/01 02:59:56;;;;;;;291.52;11.20;;;;;;;11.95;100.00;98794.47;4956237;28;20062;-63
2021/09/01 03:02:21;;;;;;;110.65;6.68;;;;;;;12.26;100.00;98798.63;4955728;28;20093;-66
2021/09/01 03:04:47;;;;;;;130.25;6.97;;;;;;;12.05;100.00;98799.38;4956328;28;20603;-64
2021/09/01 03:07:12;;;;;;;14.32;5.63;;;;;;;12.03;100.00;98796.81;4955795;28;20043;-62
2021/09/01 03:09:37;;;;;;;48.03;6.80;;;;;;;12.04;100.00;98800.25;4955785;28;20113;-63
2021/09/01 03:12:03;;;;;;;83.00;6.90;;;;;;;11.71;100.00;98803.94;4956055;28;20034;-64
2021/09/01 03:14:29;;;;;;;79.75;7.53;;;;;;;11.42;100.00;98799.66;4954369;28;20423;-64
2021/09/01 03:16:55;;;;;;;89.80;7.82;;;;;;;11.53;100.00;98796.69;4954466;28;20039;-63
2021/09/01 03:19:21;;;;;;;175.45;9.95;;;;;;;11.68;100.00;98790.13;4957281;28;20034;-66
2021/09/01 03:21:47;;;;;;;75.65;7.40;;;;;;;11.42;100.00;98797.03;4955216;28;20054;-64
2021/09/01 03:24:12;;;;;;;134.80;7.88;;;;;;;11.51;100.00;98791.53;4956508;28;20173;-62
2021/09/01 03:26:37;;;;;;;200.98;8.73;;;;;;;11.34;100.00;98796.41;4955970;28;20442;-63
2021/09/01 03:29:03;;;;;;;143.88;7.47;;;;;;;11.44;100.00;98795.22;4955991;28;20069;-62
2021/09/01 03:31:28;;;;;;;232.80;9.68;;;;;;;11.14;100.00;98799.66;4953320;28;20070;-65
2021/09/01 03:33:54;;;;;;;31.20;6.65;;;;;;;11.57;100.00;98806.13;4956083;28;20032;-63
2021/09/01 03:36:19;;;;;;;58.50;6.82;;;;;;;11.10;100.00;98803.25;4954914;28;20041;-63
2021/09/01 03:38:45;;;;;;;119.70;7.72;;;;;;;11.09;100.00;98806.78;4956345;28;20022;-62
2021/09/01 03:41:11;;;;;;;13.55;5.38;;;;;;;11.20;100.00;98809.91;4959227;28;20221;-63
2021/09/01 03:43:36;;;;;;;30.02;5.15;;;;;;;11.45;100.00;98810.00;4955590;28;20522;-62
2021/09/01 03:46:02;;;;;;;25.70;5.15;;;;;;;11.35;100.00;98804.19;4957676;28;20035;-65
2021/09/01 03:48:27;;;;;;;61.85;6.15;;;;;;;11.15;100.00;98811.81;4959767;28;20034;-65
2021/09/01 03:50:53;;;;;;;46.03;5.80;;;;;;;11.42;100.00;98817.09;4957561;28;20170;-63
2021/09/01 03:53:19;;;;;;;62.60;6.60;;;;;;;11.04;100.00;98819.09;4958764;28;20038;-64
2021/09/01 03:55:46;;;;;;;81.35;7.97;;;;;;;10.79;100.00;98819.84;4957140;28;20443;-62
2021/09/01 03:58:12;;;;;;;9.13;6.32;;;;;;;10.90;100.00;98823.00;4957622;28;20023;-61
2021/09/01 04:00:41;;;;;;;62.78;8.18;;;;;;;10.97;100.00;98827.13;4958181;28;20049;-62
2021/09/01 04:03:06;;;;;;;10.32;6.10;;;;;;;11.15;100.00;98819.63;4957968;28;20023;-62
2021/09/01 04:05:32;;;;;;;31.67;7.57;;;;;;;11.20;100.00;98820.34;4957524;28;20425;-63
2021/09/01 04:07:58;;;;;;;121.00;7.55;;;;;;;10.93;100.00;98824.63;4956793;28;20286;-66
2021/09/01 04:10:23;;;;;;;81.45;9.00;;;;;;;10.97;100.00;98834.09;4956420;28;20047;-65
2021/09/01 04:12:48;;;;;;;171.20;10.77;;;;;;;10.93;100.00;98832.47;4956398;28;20791;-65
2021/09/01 04:15:16;;;;;;;75.20;9.45;;;;;;;10.83;100.00;98831.88;4956955;28;20129;-63
2021/09/01 04:17:42;;;;;;;38.42;8.20;;;;;;;11.10;100.00;98829.34;4956982;28;20049;-63
2021/09/01 04:20:08;;;;;;;34.08;8.15;;;;;;;11.21;100.00;98829.88;4958402;28;20392;-61
2021/09/01 04:22:33;;;;;;;130.25;9.27;;;;;;;10.94;100.00;98827.22;4954916;28;20035;-66
2021/09/01 04:24:59;;;;;;;131.55;10.90;;;;;;;10.48;100.00;98835.50;4958664;28;20065;-63
2021/09/01 04:27:24;;;;;;;41.28;7.20;;;;;;;10.81;100.00;98833.69;4954436;28;20504;-64
2021/09/01 04:29:50;;;;;;;54.95;8.05;;;;;;;10.69;100.00;98840.09;4955958;28;20062;-64
2021/09/01 04:32:15;;;;;;;98.15;9.38;;;;;;;11.03;100.00;98844.38;4954718;28;20031;-62
2021/09/01 04:34:41;;;;;;;45.10;8.30;;;;;;;10.64;100.00;98846.34;4955501;28;20097;-64
2021/09/01 04:37:06;;;;;;;91.47;9.07;;;;;;;10.76;100.00;98852.06;4955124;28;20538;-65
2021/09/01 04:39:31;;;;;;;15.40;7.07;;;;;;;11.18;100.00;98850.88;4956339;28;20480;-63
2021/09/01 04:41:57;;;;;;;14.88;5.85;;;;;;;11.10;100.00;98850.25;4958342;28;20047;-65
2021/09/01 04:44:22;;;;;;;41.45;6.68;;;;;;;10.87;100.00;98853.53;4960670;28;20136;-63
2021/09/01 04:46:48;;;;;;;38.72;6.95;;;;;;;11.29;100.00;98850.56;4959658;28;20552;-63
2021/09/01 04:49:13;;;;;;;25.92;6.57;;;;;;;11.44;100.00;98844.88;4961457;28;20037;-62
2021/09/01 04:51:38;;;;;;;34.42;7.30;;;;;;;11.07;100.00;98856.41;4958576;28;20371;-64
2021/09/01 04:54:04;;;;;;;37.70;6.85;;;;;;;11.20;100.00;98849.09;4960133;28;20847;-62
2021/09/01 04:56:29;;;;;;;69.57;8.40;;;;;;;11.34;100.00;98844.31;4959138;28;20039;-66
2021/09/01 04:58:54;;;;;;;89.40;9.13;;;;;;;11.21;100.00;98845.56;4959030;28;20668;-63
2021/09/01 05:01:20;;;;;;;30.95;7.97;;;;;;;11.18;100.00;98849.13;4958692;28;20443;-65
2021/09/01 05:03:45;;;;;;;35.33;7.93;;;;;;;11.43;100.00;98847.53;4956139;28;20101;-62
2021/09/01 05:06:10;;;;;;;50.60;8.60;;;;;;;11.13;100.00;98845.78;4962051;28;20101;-63
2021/09/01 05:08:36;;;;;;;39.13;7.13;;;;;;;11.44;100.00;98851.84;4960948;28;20034;-62
2021/09/01 05:11:01;;;;;;;58.22;7.68;;;;;;;11.64;100.00;98846.84;4959671;28;20661;-62
2021/09/01 05:13:27;;;;;;;52.83;7.03;;;;;;;11.90;100.00;98858.25;4962414;28;20039;-65
2021/09/01 05:15:52;;;;;;;24.63;7.38;;;;;;;11.46;100.00;98863.09;4941822;28;20126;-62
2021/09/01 05:18:18;;;;;;;35.33;8.27;;;;;;;11.44;100.00;98854.47;4961532;28;20026;-62
2021/09/01 05:20:46;;;;;;;61.30;8.27;;;;;;;11.52;100.00;98862.91;4960804;28;20405;-64
2021/09/01 05:23:15;;;;;;;23.63;7.47;;;;;;;11.64;100.00;98859.91;4962966;28;20130;-62
2021/09/01 05:25:54;;;;;;;103.32;9.30;;;;;;;11.19;100.00;98866.50;4962361;28;20086;-63
2021/09/01 05:28:25;;;;;;;93.25;8.43;;;;;;;11.38;100.00;98871.19;4955904;28;20081;-64
2021/09/01 05:30:51;;;;;;;88.75;9.48;;;;;;;11.68;100.00;98879.81;4959566;28;20476;-64
2021/09/01 05:33:20;;;;;;;138.52;9.27;;;;;;;11.84;100.00;98874.13;4961882;28;20495;-62
2021/09/01 05:35:49;;;;;;;182.30;9.15;;;;;;;11.67;100.00;98878.13;4960772;28;20287;-63
2021/09/01 05:38:17;;;;;;;94.22;8.60;;;;;;;11.04;100.00;98887.84;4962860;28;20030;-63
2021/09/01 05:40:43;;;;;;;101.05;8.70;;;;;;;11.93;100.00;98879.94;4962640;28;20069;-62
2021/09/01 05:43:11;;;;;;;151.05;9.80;;;;;;;11.51;100.00;98887.34;4962377;28;20381;-62
2021/09/01 05:45:40;;;;;;;47.63;7.47;;;;;;;11.60;100.00;98891.41;4960465;28;20751;-61
2021/09/01 05:48:07;;;;;;;173.07;8.77;;;;;;;11.68;100.00;98892.03;4963527;28;20019;-64
2021/09/01 05:50:33;;;;;;;109.88;8.85;;;;;;;12.15;100.00;98890.53;4963636;28;20046;-63
2021/09/01 05:52:58;;;;;;;113.85;8.68;;;;;;;11.83;100.00;98893.31;4963173;28;20026;-64
2021/09/01 05:55:29;;;;;;;129.40;8.48;;;;;;;11.62;100.00;98900.94;4959823;28;20663;-62
2021/09/01 05:58:00;;;;;;;37.85;7.82;;;;;;;11.85;100.00;98896.72;4960281;28;20045;-62
2021/09/01 06:00:31;;;;;;;33.28;7.55;;;;;;;11.83;100.00;98903.78;4959887;28;20049;-64
2021/09/01 06:03:08;;;;;;;45.28;7.38;;;;;;;12.28;100.00;98898.00;4956908;28;20038;-61
2021/09/01 06:05:38;;;;;;;50.28;8.00;;;;;;;12.56;100.00;98889.19;4946012;28;20043;-63
2021/09/01 06:08:09;;;;;;;47.72;7.25;;;;;;;11.94;100.00;98897.31;4960917;28;20058;-62
2021/09/01 06:10:37;;;;;;;74.90;7.63;;;;;;;11.93;100.00;98889.53;4959304;28;20138;-64
2021/09/01 06:13:10;;;;;;;30.50;7.43;;;;;;;12.15;100.00;98900.16;4959619;28;20445;-64
2021/09/01 06:15:38;;;;;;;138.80;8.48;;;;;;;12.07;99.78;98896.94;4960788;28;20098;-61
2021/09/01 06:18:04;;;;;;;132.00;8.77;;;;;;;11.99;100.00;98893.72;4961188;28;20049;-63
2021/09/01 06:20:30;;;;;;;50.45;7.57;;;;;;;12.29;99.38;98894.44;4962376;28;20907;-61
2021/09/01 06:22:56;;;;;;;28.17;7.45;;;;;;;12.50;100.00;98885.88;4958744;28;20038;-63
2021/09/01 06:25:22;;;;;;;28.63;7.38;;;;;;;12.97;97.49;98889.47;4956678;28;20031;-64
2021/09/01 06:27:48;;;;;;;65.15;7.97;;;;;;;12.81;97.40;98890.03;4961133;28;20285;-66
2021/09/01 06:30:14;;;;;;;28.52;7.30;;;;;;;13.08;97.25;98884.69;4958275;28;20027;-63
2021/09/01 06:32:39;;;;;;;25.02;8.02;;;;;;;13.03;96.33;98895.34;4961295;28;20451;-65
2021/09/01 06:35:06;;;;;;;18.42;7.30;;;;;;;13.28;96.00;98899.66;4939067;28;20539;-67
2021/09/01 06:37:36;;;;;;;28.15;7.78;;;;;;;13.14;96.68;98901.94;4967246;28;20034;-64
2021/09/01 06:40:02;;;;;;;34.53;7.10;;;;;;;12.85;96.65;98907.34;4951544;28;20038;-66
2021/09/01 06:42:27;;;;;;;24.65;6.63;;;;;;;12.77;98.44;98901.50;4959129;28;20035;-63
2021/09/01 06:44:53;;;;;;;36.38;7.25;;;;;;;12.99;95.40;98908.59;4961082;28;20141;-62
2021/09/01 06:47:18;;;;;;;32.60;7.68;;;;;;;12.44;99.48;98911.38;4962215;28;20038;-61
2021/09/01 06:49:44;;;;;;;43.47;8.32;;;;;;;12.54;99.30;98912.78;4963871;28;20389;-63
2021/09/01 06:52:09;;;;;;;49.58;7.47;;;;;;;12.88;96.86;98912.47;4960787;28;20142;-63
2021/09/01 06:54:35;;;;;;;32.55;8.20;;;;;;;12.56;100.00;98910.13;4963720;28;20023;-65
2021/09/01 06:57:00;;;;;;;127.43;8.15;;;;;;;12.82;96.88;98911.84;4959702;28;20046;-65
2021/09/01 06:59:26;;;;;;;40.88;6.63;;;;;;;13.56;94.85;98914.38;4960339;28;20033;-64
2021/09/01 07:01:51;;;;;;;36.60;6.88;;;;;;;13.27;96.62;98916.28;4959331;28;20046;-64
2021/09/01 07:04:16;;;;;;;57.15;7.53;;;;;;;13.47;93.69;98910.31;4958381;28;20120;-62
2021/09/01 07:06:42;;;;;;;56.72;7.32;;;;;;;13.32;94.96;98910.91;4958531;28;20031;-63
2021/09/01 07:09:07;;;;;;;19.50;6.70;;;;;;;13.76;93.49;98906.56;4956503;28;20114;-62
2021/09/01 07:11:33;;;;;;;27.13;6.90;;;;;;;14.12;90.08;98906.03;4956843;28;20129;-66
2021/09/01 07:13:58;;;;;;;12.43;6.13;;;;;;;14.32;91.86;98910.44;4957343;28;20033;-63
2021/09/01 07:16:24;;;;;;;19.00;6.90;;;;;;;13.75;92.46;98917.13;4942556;28;20039;-63
2021/09/01 07:18:50;;;;;;;41.28;7.45;;;;;;;13.81;91.91;98927.38;4959003;28;20034;-65
2021/09/01 07:21:18;;;;;;;8.13;5.78;;;;;;;15.42;85.88;98925.81;4960406;28;20425;-62
2021/09/01 07:23:43;;;;;;;12.50;6.70;;;;;;;14.76;87.74;98926.13;4958525;28;20051;-62
2021/09/01 07:26:13;;;;;;;8.68;6.55;;;;;;;15.09;86.93;98919.44;4944421;28;20047;-63
2021/09/01 07:28:40;;;;;;;13.98;6.20;;;;;;;14.86;86.05;98915.22;4958484;28;20624;-62
2021/09/01 07:31:07;;;;;;;12.23;6.45;;;;;;;14.70;88.16;98921.09;4957349;28;20588;-63
2021/09/01 07:33:33;;;;;;;9.35;6.85;;;;;;;14.62;88.74;98923.22;4959705;28;20063;-65
2021/09/01 07:35:58;;;;;;;15.45;7.93;;;;;;;15.01;86.24;98925.88;4945372;28;20092;-63
2021/09/01 07:38:23;;;;;;;9.45;6.85;;;;;;;16.04;83.42;98935.22;4944748;28;20046;-62
2021/09/01 07:40:49;;;;;;;8.70;6.72;;;;;;;16.29;81.98;98933.09;4959208;28;20431;-66
2021/09/01 07:43:14;;;;;;;12.50;8.77;;;;;;;15.28;85.94;98933.47;4957595;28;20054;-62
2021/09/01 07:45:42;;;;;;;16.63;9.48;;;;;;;15.26;85.58;98939.72;4956575;28;20039;-63
2021/09/01 07:48:11;;;;;;;10.43;7.93;;;;;;;16.13;83.02;98942.69;4954353;28;20022;-63
2021/09/01 07:50:37;;;;;;;22.55;10.60;;;;;;;15.38;85.62;98942.66;4958874;28;20049;-63
2021/09/01 07:53:03;;;;;;;26.10;9.85;;;;;;;15.04;86.15;98945.91;4958960;28;20113;-63
2021/09/01 07:55:28;;;;;;;19.00;10.32;;;;;;;15.32;86.29;98948.16;4958051;28;20137;-66
2021/09/01 07:57:53;;;;;;;13.50;9.15;;;;;;;15.91;83.83;98948.97;4952088;28;20035;-63
2021/09/01 08:00:19;;;;;;;16.50;9.25;;;;;;;16.81;82.42;98955.94;4959061;28;20457;-67
2021/09/01 08:02:44;;;;;;;14.85;8.82;;;;;;;16.75;82.13;98957.13;4962119;28;20022;-63
2021/09/01 08:05:10;;;;;;;21.30;9.00;;;;;;;16.03;83.67;98952.81;4959220;28;20027;-66
2021/09/01 08:07:35;;;;;;;15.05;9.35;;;;;;;16.25;83.13;98951.75;4960197;28;20065;-64
2021/09/01 08:10:01;;;;;;;15.38;9.35;;;;;;;16.51;80.90;98953.94;4964020;28;20015;-64
2021/09/01 08:12:27;;;;;;;13.32;8.80;;;;;;;17.26;77.98;98967.72;4960259;28;20412;-65
2021/09/01 08:14:52;;;;;;;15.95;8.82;;;;;;;17.14;78.33;98969.19;4960658;28;20769;-63
2021/09/01 08:17:18;;;;;;;14.02;9.13;;;;;;;16.38;80.09;98964.22;4962349;28;20069;-65
2021/09/01 08:19:45;;;;;;;15.60;8.88;;;;;;;16.07;81.85;98977.19;4960975;28;20065;-63
2021/09/01 08:22:11;;;;;;;15.35;8.65;;;;;;;17.48;76.84;98970.06;4962118;28;20043;-64
2021/09/01 08:24:38;;;;;;;13.23;8.02;;;;;;;17.08;78.46;98973.94;4958526;28;20480;-66
2021/09/01 08:27:05;;;;;;;11.88;7.82;;;;;;;17.93;75.30;98970.28;4959132;28;20043;-65
2021/09/01 08:29:30;;;;;;;11.57;8.05;;;;;;;17.82;75.64;98976.13;4960019;28;20523;-64
2021/09/01 08:31:56;;;;;;;13.90;7.90;;;;;;;18.73;73.72;98980.69;4958203;28;20039;-65
2021/09/01 08:34:21;;;;;;;11.68;7.25;;;;;;;20.59;66.95;98985.03;4959253;28;20484;-63
2021/09/01 08:36:47;;;;;;;9.35;6.93;;;;;;;19.94;66.65;98983.94;4957964;28;20512;-65
2021/09/01 08:39:12;;;;;;;13.98;7.70;;;;;;;22.75;59.00;98975.97;4958194;28;20169;-63
2021/09/01 08:41:38;;;;;;;10.45;6.57;;;;;;;22.58;61.58;98973.75;4958855;28;20121;-64
2021/09/01 08:44:04;;;;;;;12.13;7.00;;;;;;;21.65;61.54;98974.28;4960297;28;20026;-66
2021/09/01 08:46:32;;;;;;;9.82;6.28;;;;;;;23.32;59.01;98966.31;4961922;28;20046;-66
2021/09/01 08:48:59;;;;;;;9.23;5.88;;;;;;;22.67;59.12;98970.41;4959452;28;20038;-65
2021/09/01 08:51:25;;;;;;;8.80;6.45;;;;;;;23.47;58.46;98969.59;4957335;28;20038;-65
2021/09/01 08:53:50;;;;;;;8.85;5.80;;;;;;;24.72;55.10;98968.38;4961441;28;20052;-65
2021/09/01 08:56:18;;;;;;;14.73;6.50;;;;;;;26.03;52.90;98961.59;4959615;28;20050;-64
2021/09/01 08:58:44;;;;;;;10.02;5.70;;;;;;;25.19;54.95;98952.78;4960259;28;20530;-64
2021/09/01 09:01:38;;;;;;;9.73;6.22;;;;;;;24.72;53.59;98955.03;4960391;28;20049;-65
2021/09/01 09:04:03;;;;;;;8.07;5.40;;;;;;;26.34;51.87;98960.50;4960770;28;20026;-66
2021/09/01 09:06:49;;;;;;;6.68;4.95;;;;;;;25.73;51.11;98953.47;4960876;28;20035;-66
2021/09/01 09:09:18;;;;;;;7.10;5.07;;;;;;;25.11;52.48;98960.63;4962679;28;20033;-65
2021/09/01 09:11:44;;;;;;;8.32;5.28;;;;;;;27.37;49.48;98958.13;4959701;28;20555;-65
2021/09/01 09:14:23;;;;;;;9.90;4.93;;;;;;;27.57;47.51;98952.69;4959400;28;20054;-66
2021/09/01 09:17:08;;;;;;;7.95;4.40;;;;;;;26.66;49.63;98947.84;4960075;28;20039;-65
2021/09/01 09:19:48;;;;;;;6.28;4.43;;;;;;;27.81;48.65;98958.34;4959232;28;20042;-65
2021/09/01 09:22:18;;;;;;;6.00;4.40;;;;;;;25.02;52.31;98951.56;4949442;28;20034;-67
2021/09/01 09:24:43;;;;;;;6.15;4.55;;;;;;;25.71;51.60;98952.72;4961834;28;20035;-64
2021/09/01 09:27:09;;;;;;;6.38;4.03;;;;;;;26.37;50.60;98945.16;4959277;28;20095;-66
2021/09/01 09:29:34;;;;;;;5.63;4.00;;;;;;;27.28;48.65;98953.66;4966071;28;20042;-67
2021/09/01 09:32:03;;;;;;;6.85;4.07;;;;;;;26.50;51.62;98953.72;4964445;28;20103;-67
2021/09/01 09:34:40;;;;;;;5.93;3.90;;;;;;;27.35;49.90;98949.41;4965624;28;20033;-66
2021/09/01 09:37:10;;;;;;;5.72;4.20;;;;;;;27.20;48.74;98956.19;4963477;28;20043;-67
2021/09/01 09:39:51;;;;;;;6.18;3.63;;;;;;;27.73;47.32;98952.88;4963348;28;20035;-67
2021/09/01 09:42:35;;;;;;;4.47;3.30;;;;;;;29.42;44.06;98951.22;4966035;28;20042;-66
2021/09/01 09:45:23;;;;;;;7.15;3.97;;;;;;;27.06;48.06;98944.94;4964992;28;20034;-67
2021/09/01 09:47:50;;;;;;;8.60;3.78;;;;;;;25.68;53.22;98944.19;4965224;28;20447;-66
2021/09/01 09:50:16;;;;;;;5.63;3.85;;;;;;;23.99;54.51;98952.13;4964208;28;20038;-66
2021/09/01 09:52:42;;;;;;;5.80;3.70;;;;;;;23.53;56.36;98945.16;4966476;28;20030;-66
2021/09/01 09:55:16;;;;;;;6.35;3.58;;;;;;;23.90;56.91;98957.38;4962503;28;20420;-67
2021/09/01 09:57:50;;;;;;;6.10;3.80;;;;;;;22.99;59.06;98951.13;4964113;28;20801;-67
2021/09/01 10:00:17;;;;;;;8.40;3.83;;;;;;;22.69;59.69;98950.69;4961491;28;20031;-65
2021/09/01 10:02:43;;;;;;;5.68;4.07;;;;;;;21.62;59.85;98948.81;4962422;28;20057;-65
2021/09/01 10:05:14;;;;;;;6.80;4.18;;;;;;;20.97;63.46;98942.69;4962452;28;20436;-67
2021/09/01 10:07:40;;;;;;;6.25;3.88;;;;;;;21.38;62.56;98936.28;4962419;28;20022;-66
2021/09/01 10:10:06;;;;;;;5.95;4.20;;;;;;;21.44;62.29;98936.81;4960663;28;20019;-66
2021/09/01 10:12:36;;;;;;;6.10;4.05;;;;;;;20.79;64.13;98938.66;4963299;28;20031;-65
2021/09/01 10:15:04;;;;;;;6.25;4.10;;;;;;;21.26;62.98;98933.66;4961568;28;20437;-67
2021/09/01 10:17:29;;;;;;;9.68;3.83;;;;;;;22.08;57.86;98929.53;4963475;28;20059;-66
2021/09/01 10:19:55;;;;;;;5.63;3.70;;;;;;;23.03;52.66;98936.63;4961858;28;20033;-66
2021/09/01 12:24:22;;;;;;;6.65;3.80;;;;;;;23.79;46.58;98872.97;4962352;28;20026;-66
2021/09/01 12:26:57;;;;;;;5.90;3.97;;;;;;;22.25;47.90;98863.66;4961008;28;20049;-64
2021/09/01 12:29:26;;;;;;;7.38;3.88;;;;;;;23.73;47.13;98870.78;4960391;28;20117;-65
2021/09/01 12:31:53;;;;;;;6.38;4.00;;;;;;;24.08;47.42;98864.41;4961155;28;20086;-64
2021/09/01 12:34:33;;;;;;;7.47;4.32;;;;;;;23.36;50.21;98868.44;4961259;28;20043;-63
2021/09/01 12:37:20;;;;;;;9.07;4.20;;;;;;;23.08;52.23;98873.28;4960932;28;20034;-63
2021/09/01 12:39:48;;;;;;;7.00;4.35;;;;;;;21.73;54.55;98873.69;4960334;28;20452;-64
2021/09/01 12:42:29;;;;;;;6.97;4.40;;;;;;;22.41;54.52;98866.06;4962257;28;20436;-64
2021/09/01 12:45:00;;;;;;;7.70;4.20;;;;;;;22.05;56.84;98867.81;4961215;28;20034;-64
2021/09/01 12:47:28;;;;;;;8.70;4.87;;;;;;;21.89;55.88;98857.47;4960144;28;20111;-65
2021/09/01 12:49:55;;;;;;;5.85;4.40;;;;;;;21.78;55.76;98846.78;4960139;28;20031;-64
2021/09/01 12:52:23;;;;;;;7.28;3.90;;;;;;;22.02;53.47;98850.31;4961527;28;20560;-63
2021/09/01 12:54:50;;;;;;;7.80;4.60;;;;;;;22.09;55.19;98848.00;4960560;28;20042;-64
2021/09/01 12:57:16;;;;;;;8.60;4.50;;;;;;;22.35;54.68;98843.44;4961849;28;20077;-64
2021/09/01 12:59:41;;;;;;;10.13;4.55;;;;;;;22.59;53.67;98853.13;4957584;28;20065;-64
2021/09/01 13:02:09;;;;;;;8.10;4.63;;;;;;;23.35;52.34;98856.09;4958990;28;20151;-66
2021/09/01 13:04:35;;;;;;;8.25;4.10;;;;;;;23.54;50.16;98856.28;4964856;28;20588;-66
2021/09/01 13:07:00;;;;;;;6.07;3.92;;;;;;;23.60;47.26;98850.50;4962673;28;20034;-65
2021/09/01 13:09:26;;;;;;;8.32;4.10;;;;;;;23.84;46.13;98846.84;4965442;28;20110;-65
2021/09/01 13:11:53;;;;;;;7.20;4.20;;;;;;;23.18;46.95;98842.34;4964948;28;20045;-65
2021/09/01 13:14:19;;;;;;;6.55;4.00;;;;;;;23.86;45.45;98844.88;4963562;28;20034;-65
2021/09/01 13:16:45;;;;;;;6.07;3.95;;;;;;;24.43;46.55;98846.28;4962319;28;20038;-65
2021/09/01 13:19:11;;;;;;;5.40;4.00;;;;;;;22.63;49.14;98849.28;4964006;28;20031;-66
2021/09/01 13:21:37;;;;;;;6.65;4.07;;;;;;;22.69;50.65;98851.47;4965689;28;21067;-66
2021/09/01 13:24:03;;;;;;;9.43;4.18;;;;;;;22.83;50.36;98851.25;4963446;28;20094;-64
2021/09/01 13:26:29;;;;;;;5.65;4.20;;;;;;;22.34;52.40;98847.06;4963885;28;20051;-66